Terminal Aerodrome Forecast
Issued by NWS

Home | Current Version | Previous Version | Text Only | Print | Product List | Glossary On
Versions: 1 2 3 4 5 6 7 8 9 10 11 12 13 14 15 16 17 18 19 20 21 22 23 24 25 26 27 28 29 30 31 32
971
FTUS42 KCAE 212258 AAE
TAFDNL
TAF AMD
KDNL 212258Z 2123/2218 20008KT P6SM SCT025 BKN100
     FM220700 21006KT 1SM TSRA BR OVC004CB
     FM221500 22012KT 4SM BR OVC015=

USA.gov is the U.S. government's official web portal to all federal, state and local government web resources and services.